createdAt,value
2022-09-16T00:04:47.818Z,12.87
2022-09-16T00:09:50.253Z,12.87
2022-09-16T00:14:53.910Z,12.87
2022-09-16T00:19:58.270Z,12.75
2022-09-16T00:25:00.714Z,13.41
2022-09-16T00:30:03.484Z,13.53
2022-09-16T00:35:09.156Z,14.15
2022-09-16T00:40:12.088Z,14.20
2022-09-16T00:45:18.938Z,14.16
2022-09-16T00:50:38.358Z,14.24
2022-09-16T00:55:42.251Z,14.37
2022-09-16T01:00:44.774Z,14.21
2022-09-16T01:05:49.951Z,14.00
2022-09-16T01:10:52.793Z,13.47
2022-09-16T01:16:01.815Z,13.81
2022-09-16T01:21:36.216Z,13.88
2022-09-16T01:26:58.751Z,13.87
2022-09-16T01:32:07.321Z,13.80
2022-09-16T01:37:16.487Z,13.60
2022-09-16T01:42:27.505Z,13.88
2022-09-16T01:47:37.307Z,13.48
2022-09-16T01:52:46.897Z,13.89
2022-09-16T01:57:57.874Z,13.83
2022-09-16T02:03:04.609Z,13.80
2022-09-16T02:08:11.409Z,13.86
2022-09-16T02:13:20.411Z,13.88
2022-09-16T02:18:30.694Z,13.88
2022-09-16T02:23:39.572Z,13.60
2022-09-16T02:28:45.490Z,13.51
2022-09-16T02:33:54.515Z,13.84
2022-09-16T02:39:01.586Z,13.53
2022-09-16T02:44:05.087Z,13.58
2022-09-16T02:49:14.627Z,13.86
2022-09-16T02:54:23.034Z,13.59
2022-09-16T02:59:26.116Z,14.12
2022-09-16T03:04:30.285Z,13.91
2022-09-16T03:09:34.959Z,13.86
2022-09-16T03:15:16.281Z,13.67
2022-09-16T03:20:27.636Z,13.52
2022-09-16T03:25:42.701Z,13.59
2022-09-16T03:30:54.355Z,13.07
2022-09-16T03:36:01.146Z,13.26
2022-09-16T03:41:05.511Z,13.42
2022-09-16T03:46:12.285Z,13.17
2022-09-16T03:51:16.559Z,13.44
2022-09-16T03:56:19.340Z,13.11
2022-09-16T04:01:21.824Z,13.10
2022-09-16T04:06:25.761Z,12.47
2022-09-16T04:11:29.676Z,12.22
2022-09-16T04:16:32.393Z,12.62
2022-09-16T04:21:36.675Z,12.67
2022-09-16T04:26:39.344Z,12.60
2022-09-16T04:31:41.752Z,12.10
2022-09-16T04:36:45.512Z,12.26
2022-09-16T04:41:47.972Z,12.45
2022-09-16T04:46:50.640Z,12.61
2022-09-16T04:51:54.377Z,12.36
2022-09-16T04:56:57.668Z,12.59
2022-09-16T05:02:01.325Z,12.82
2022-09-16T05:07:05.341Z,12.42
2022-09-16T05:12:08.831Z,12.05
2022-09-16T05:17:12.361Z,12.21
2022-09-16T05:22:23.106Z,12.38
2022-09-16T05:27:27.966Z,12.52
2022-09-16T05:32:30.992Z,12.32
2022-09-16T05:37:34.748Z,12.20
2022-09-16T05:42:37.234Z,12.31
2022-09-16T05:47:40.054Z,12.25
2022-09-16T05:52:43.811Z,12.56
2022-09-16T05:57:46.211Z,12.79
2022-09-16T06:02:49.187Z,12.90
2022-09-16T06:07:57.292Z,12.76
2022-09-16T06:12:59.745Z,12.68
2022-09-16T06:18:06.236Z,12.57
2022-09-16T06:23:10.418Z,12.46
2022-09-16T06:28:13.223Z,12.48
2022-09-16T06:33:16.511Z,12.36
2022-09-16T06:38:20.381Z,12.61
2022-09-16T06:43:22.827Z,13.04
2022-09-16T06:48:25.280Z,13.73
2022-09-16T06:53:29.906Z,13.41
2022-09-16T06:58:34.571Z,13.35
2022-09-16T07:03:39.002Z,13.41
2022-09-16T07:08:43.482Z,13.68
2022-09-16T07:13:47.116Z,13.66
2022-09-16T07:18:57.391Z,13.90
2022-09-16T07:24:04.331Z,13.77
2022-09-16T07:29:08.531Z,14.12
2022-09-16T07:34:12.863Z,13.89
2022-09-16T07:39:18.921Z,14.22
2022-09-16T07:44:21.999Z,13.92
2022-09-16T07:49:24.412Z,14.20
2022-09-16T07:54:28.500Z,14.58
2022-09-16T07:59:30.989Z,14.78
2022-09-16T08:04:33.406Z,15.12
2022-09-16T08:09:40.282Z,15.30
2022-09-16T08:14:45.432Z,15.37
2022-09-16T08:19:48.171Z,15.73
2022-09-16T08:24:52.034Z,15.97
2022-09-16T08:29:54.514Z,15.62
2022-09-16T08:34:57.052Z,15.63
2022-09-16T08:40:01.043Z,15.34
2022-09-16T08:45:20.708Z,15.38
2022-09-16T08:50:27.669Z,15.04
2022-09-16T08:55:35.504Z,15.96
2022-09-16T09:00:38.602Z,15.50
2022-09-16T09:05:51.141Z,15.35
2022-09-16T09:10:58.226Z,15.45
2022-09-16T09:16:09.653Z,15.40
2022-09-16T09:21:23.284Z,15.40
2022-09-16T09:26:39.886Z,15.78
2022-09-16T09:31:51.303Z,15.90
2022-09-16T09:37:07.349Z,16.41
2022-09-16T09:42:17.719Z,16.20
2022-09-16T09:47:25.215Z,16.48
2022-09-16T09:52:36.107Z,15.99
2022-09-16T09:57:46.992Z,16.09
2022-09-16T10:02:50.199Z,15.97
2022-09-16T10:07:56.654Z,16.01
2022-09-16T10:13:10.056Z,16.03
2022-09-16T10:18:15.375Z,16.34
2022-09-16T10:23:29.011Z,16.85
2022-09-16T10:28:34.201Z,18.65
2022-09-16T10:33:43.764Z,21.83
2022-09-16T10:38:51.706Z,18.44
2022-09-16T10:44:00.004Z,17.36
2022-09-16T10:49:10.797Z,19.30
2022-09-16T10:54:28.033Z,23.75
2022-09-16T10:59:32.057Z,25.57
2022-09-16T11:04:51.720Z,25.60
2022-09-16T11:10:00.190Z,26.87
2022-09-16T11:15:15.294Z,28.07
2022-09-16T11:20:47.312Z,29.52
2022-09-16T11:25:57.491Z,30.41
2022-09-16T11:31:09.305Z,28.32
2022-09-16T11:36:32.410Z,28.38
2022-09-16T11:41:42.350Z,26.18
2022-09-16T11:46:57.651Z,21.82
2022-09-16T11:52:12.421Z,18.41
2022-09-16T11:57:19.617Z,18.42
2022-09-16T12:02:28.302Z,18.43
2022-09-16T12:07:39.154Z,17.55
2022-09-16T12:12:46.081Z,17.03
2022-09-16T12:17:54.438Z,16.57
2022-09-16T12:23:03.157Z,21.51
2022-09-16T12:28:14.320Z,27.36
2022-09-16T12:33:23.136Z,26.57
2022-09-16T12:38:26.190Z,24.53
2022-09-16T12:44:02.550Z,25.81
2022-09-16T12:49:46.286Z,19.51
2022-09-16T12:55:29.362Z,19.77
2022-09-16T13:00:40.408Z,24.10
2022-09-16T13:05:48.329Z,22.82
2022-09-16T13:11:20.016Z,21.72
2022-09-16T13:16:33.262Z,25.92
2022-09-16T13:21:44.581Z,30.08
2022-09-16T13:26:47.272Z,30.83
2022-09-16T13:31:50.131Z,28.19
2022-09-16T13:36:54.043Z,27.26
2022-09-16T13:41:56.998Z,29.94
2022-09-16T13:47:18.904Z,30.64
2022-09-16T13:52:28.396Z,26.48
2022-09-16T13:57:51.149Z,22.63
2022-09-16T14:03:34.932Z,21.20
2022-09-16T14:08:51.613Z,20.08
2022-09-16T14:14:05.591Z,20.24
2022-09-16T14:19:26.669Z,25.16
2022-09-16T14:24:37.482Z,28.25
2022-09-16T14:29:40.033Z,26.92
2022-09-16T14:34:42.537Z,26.38
2022-09-16T14:39:50.826Z,28.87
2022-09-16T14:44:57.352Z,26.31
2022-09-16T14:50:06.379Z,26.77
2022-09-16T14:55:19.911Z,25.83
2022-09-16T15:00:23.663Z,26.68
2022-09-16T15:05:30.721Z,24.59
2022-09-16T15:10:51.539Z,22.09
2022-09-16T15:15:57.018Z,21.11
2022-09-16T15:21:06.403Z,21.25
2022-09-16T15:26:16.601Z,20.40
2022-09-16T15:31:31.532Z,20.22
2022-09-16T15:36:39.896Z,20.00
2022-09-16T15:41:43.902Z,19.77
2022-09-16T15:46:46.954Z,19.32
2022-09-16T15:51:53.177Z,19.30
2022-09-16T15:57:02.540Z,18.47
2022-09-16T16:02:20.268Z,18.19
2022-09-16T16:07:41.637Z,17.92
2022-09-16T16:12:47.933Z,17.73
2022-09-16T16:17:51.269Z,17.70
2022-09-16T16:22:54.493Z,17.51
2022-09-16T16:27:58.462Z,17.55
2022-09-16T16:33:01.021Z,16.97
2022-09-16T16:38:03.713Z,17.27
2022-09-16T16:43:07.660Z,17.18
2022-09-16T16:48:11.089Z,17.33
2022-09-16T16:53:13.743Z,17.19
2022-09-16T16:58:17.508Z,16.72
2022-09-16T17:03:22.134Z,16.71
2022-09-16T17:08:24.720Z,16.63
2022-09-16T17:13:28.611Z,16.25
2022-09-16T17:18:31.613Z,15.89
2022-09-16T17:23:34.468Z,15.91
2022-09-16T17:28:39.702Z,15.85
2022-09-16T17:33:42.536Z,15.78
2022-09-16T17:38:45.018Z,15.50
2022-09-16T17:43:49.420Z,15.49
2022-09-16T17:48:51.851Z,15.39
2022-09-16T17:53:54.968Z,15.18
2022-09-16T17:58:58.801Z,14.95
2022-09-16T18:04:01.790Z,14.70
2022-09-16T18:09:07.302Z,14.60
2022-09-16T18:14:13.430Z,14.78
2022-09-16T18:19:16.033Z,14.31
2022-09-16T18:24:19.597Z,13.97
2022-09-16T18:29:23.970Z,13.26
2022-09-16T18:34:28.969Z,12.94
2022-09-16T18:39:35.426Z,13.01
2022-09-16T18:44:39.449Z,12.64
2022-09-16T18:49:42.354Z,12.67
2022-09-16T18:54:46.961Z,12.78
2022-09-16T18:59:50.668Z,12.74
2022-09-16T19:04:53.076Z,12.84
2022-09-16T19:09:55.986Z,12.76
2022-09-16T19:14:59.965Z,13.07
2022-09-16T19:20:03.284Z,13.55
2022-09-16T19:25:07.060Z,13.44
2022-09-16T19:30:12.724Z,12.82
2022-09-16T19:35:15.786Z,13.22
2022-09-16T19:40:18.351Z,12.73
2022-09-16T19:45:27.692Z,13.19
2022-09-16T19:50:30.732Z,12.97
2022-09-16T19:55:33.471Z,12.81
2022-09-16T20:00:55.296Z,13.06
2022-09-16T20:06:03.324Z,13.05
2022-09-16T20:11:06.863Z,12.77
2022-09-16T20:16:10.773Z,12.63
2022-09-16T20:21:15.077Z,12.75
2022-09-16T20:26:19.518Z,12.76
2022-09-16T20:31:25.464Z,12.47
2022-09-16T20:36:31.036Z,12.54
2022-09-16T20:41:34.662Z,12.43
2022-09-16T20:46:39.608Z,12.51
2022-09-16T20:51:42.359Z,12.47
2022-09-16T20:56:46.355Z,12.18
2022-09-16T21:01:50.611Z,12.22
2022-09-16T21:06:53.072Z,12.01
2022-09-16T21:11:56.136Z,12.19
2022-09-16T21:17:00.230Z,12.29
2022-09-16T21:22:03.566Z,12.23
2022-09-16T21:27:06.304Z,12.33
2022-09-16T21:32:10.892Z,12.47
2022-09-16T21:37:13.182Z,12.24
2022-09-16T21:42:16.119Z,12.26
2022-09-16T21:47:19.894Z,12.52
2022-09-16T21:52:22.502Z,12.25
2022-09-16T21:57:25.059Z,12.06
2022-09-16T22:02:30.887Z,12.14
2022-09-16T22:07:33.417Z,12.18
2022-09-16T22:12:35.824Z,12.04
2022-09-16T22:17:42.460Z,12.30
2022-09-16T22:22:44.875Z,12.04
2022-09-16T22:27:47.707Z,12.16
2022-09-16T22:32:51.539Z,12.14
2022-09-16T22:37:54.416Z,12.15
2022-09-16T22:42:56.916Z,12.08
2022-09-16T22:48:00.941Z,12.10
2022-09-16T22:53:03.555Z,12.27
2022-09-16T22:58:06.647Z,12.20
2022-09-16T23:03:10.577Z,11.87
2022-09-16T23:08:13.169Z,11.93
2022-09-16T23:13:15.622Z,11.87
2022-09-16T23:18:19.636Z,11.93
2022-09-16T23:23:22.153Z,11.78
2022-09-16T23:28:25.028Z,11.81
2022-09-16T23:33:29.702Z,11.81
2022-09-16T23:38:32.748Z,12.03
2022-09-16T23:43:35.175Z,11.97
2022-09-16T23:48:39.507Z,11.93
2022-09-16T23:53:42.989Z,11.87
2022-09-16T23:58:46.204Z,11.80
